ADDS METAR Data INFO
IDs: Format: Raw Decoded Include TAF

Data at: 2021 UTC 25 Apr 2018

METAR for:KILN (Wilmington Arpt, OH, US)
Text:KILN 251954Z AUTO 35006KT 10SM FEW033 BKN042 17/12 A2992 RMK AO2 SLP134 T01720117
Temperature: 17.2°C ( 63°F)
Dewpoint: 11.7°C ( 53°F) [RH = 70%]
Pressure (altimeter):29.92 inches Hg (1013.3 mb) [Sea level pressure: 1013.4 mb]
Winds:from the N (350 degrees) at 7 MPH (6 knots; 3.1 m/s)
Visibility:10 or more sm (16+ km)
Ceiling:4200 feet AGL
Clouds: few clouds at 3300 feet AGL, broken clouds at 4200 feet AGL
QC Flag:automated observation with no human augmentation